createdAt,value
2018-05-27T00:00:22.795Z,20.10
2018-05-27T00:05:25.262Z,20.10
2018-05-27T00:10:27.786Z,20.10
2018-05-27T00:15:30.232Z,20.10
2018-05-27T00:20:32.686Z,20.10
2018-05-27T00:25:35.910Z,20.00
2018-05-27T00:30:38.361Z,19.90
2018-05-27T00:35:40.811Z,20.00
2018-05-27T00:40:43.257Z,20.00
2018-05-27T00:45:46.471Z,19.90
2018-05-27T00:50:48.921Z,19.90
2018-05-27T00:55:51.361Z,19.90
2018-05-27T01:00:53.818Z,19.90
2018-05-27T01:05:57.033Z,19.70
2018-05-27T01:11:00.255Z,19.60
2018-05-27T01:16:02.706Z,19.60
2018-05-27T01:21:06.846Z,19.50
2018-05-27T01:26:10.064Z,19.30
2018-05-27T01:31:13.274Z,19.10
2018-05-27T01:36:15.721Z,19.10
2018-05-27T01:41:18.170Z,19.00
2018-05-27T01:46:20.626Z,18.90
2018-05-27T01:51:23.846Z,18.70
2018-05-27T01:56:26.297Z,18.60
2018-05-27T02:01:28.745Z,18.60
2018-05-27T02:06:31.194Z,18.50
2018-05-27T02:11:34.413Z,18.50
2018-05-27T02:16:36.857Z,18.50
2018-05-27T02:21:39.314Z,18.40
2018-05-27T02:26:42.166Z,18.20
2018-05-27T02:31:45.381Z,17.90
2018-05-27T02:36:48.585Z,17.70
2018-05-27T02:41:51.813Z,17.70
2018-05-27T02:46:54.255Z,17.70
2018-05-27T02:51:56.702Z,17.70
2018-05-27T02:56:59.151Z,17.60
2018-05-27T03:02:02.369Z,17.20
2018-05-27T03:07:04.817Z,17.10
2018-05-27T03:12:07.280Z,17.10
2018-05-27T03:17:09.722Z,16.90
2018-05-27T03:22:12.941Z,16.80
2018-05-27T03:27:15.389Z,16.80
2018-05-27T03:32:17.846Z,16.80
2018-05-27T03:37:20.297Z,16.60
2018-05-27T03:42:22.751Z,16.50
2018-05-27T03:47:25.201Z,16.40
2018-05-27T03:52:27.652Z,16.40
2018-05-27T03:57:30.880Z,16.30
2018-05-27T04:02:33.549Z,16.30
2018-05-27T04:07:47.839Z,16.30
2018-05-27T04:12:50.295Z,16.30
2018-05-27T04:17:53.545Z,16.50
2018-05-27T04:22:55.998Z,16.60
2018-05-27T04:27:59.220Z,16.90
2018-05-27T04:33:01.675Z,16.90
2018-05-27T04:38:04.125Z,17.00
2018-05-27T04:43:06.582Z,17.00
2018-05-27T04:48:09.052Z,16.90
2018-05-27T04:53:12.261Z,16.70
2018-05-27T04:58:15.486Z,16.60
2018-05-27T05:03:18.343Z,16.60
2018-05-27T05:08:20.854Z,16.60
2018-05-27T05:13:24.142Z,16.50
2018-05-27T05:18:26.585Z,16.50
2018-05-27T05:23:29.048Z,16.60
2018-05-27T05:28:31.500Z,16.60
2018-05-27T05:33:33.967Z,16.70
2018-05-27T05:38:36.412Z,16.90
2018-05-27T05:43:38.885Z,17.30
2018-05-27T05:48:41.313Z,17.70
2018-05-27T05:53:43.770Z,17.90
2018-05-27T05:58:46.219Z,18.20
2018-05-27T06:03:48.677Z,18.60
2018-05-27T06:08:51.130Z,18.90
2018-05-27T06:13:54.361Z,19.40
2018-05-27T06:18:56.819Z,19.30
2018-05-27T06:24:00.044Z,19.80
2018-05-27T06:29:02.511Z,19.70
2018-05-27T06:34:05.729Z,20.20
2018-05-27T06:39:08.197Z,20.20
2018-05-27T06:44:11.426Z,20.70
2018-05-27T06:49:13.897Z,20.60
2018-05-27T06:54:17.126Z,21.30
2018-05-27T06:59:19.574Z,21.30
2018-05-27T07:04:22.057Z,21.70
2018-05-27T07:09:24.500Z,21.90
2018-05-27T07:14:26.958Z,22.30
2018-05-27T07:19:30.168Z,22.80
2018-05-27T07:24:33.377Z,23.10
2018-05-27T07:29:35.854Z,23.10
2018-05-27T07:34:39.070Z,23.80
2018-05-27T07:39:41.518Z,23.70
2018-05-27T07:44:43.970Z,24.10
2018-05-27T07:49:46.437Z,24.30
2018-05-27T07:54:48.905Z,24.60
2018-05-27T07:59:52.126Z,25.00
2018-05-27T08:04:54.593Z,24.90
2018-05-27T08:09:57.061Z,25.20
2018-05-27T08:14:59.526Z,25.40
2018-05-27T08:20:02.056Z,25.60
2018-05-27T08:25:04.464Z,25.80
2018-05-27T08:30:07.057Z,26.00
2018-05-27T08:35:09.581Z,26.10
2018-05-27T08:40:12.046Z,26.30
2018-05-27T08:45:14.521Z,26.30
2018-05-27T08:50:17.041Z,26.40
2018-05-27T08:55:19.502Z,26.60
2018-05-27T09:00:22.721Z,26.80
2018-05-27T09:05:25.173Z,26.70
2018-05-27T09:10:27.617Z,26.80
2018-05-27T09:15:30.066Z,26.90
2018-05-27T09:20:33.290Z,27.20
2018-05-27T09:25:35.738Z,27.10
2018-05-27T09:30:38.206Z,27.30
2018-05-27T09:35:40.719Z,27.40
2018-05-27T09:40:43.178Z,27.30
2018-05-27T09:45:45.630Z,27.30
2018-05-27T09:50:48.084Z,27.30
2018-05-27T09:55:50.546Z,27.40
2018-05-27T10:00:53.045Z,27.40
2018-05-27T10:05:55.506Z,27.30
2018-05-27T10:10:57.960Z,27.40
2018-05-27T10:16:00.418Z,27.30
2018-05-27T10:21:02.881Z,27.40
2018-05-27T10:26:05.384Z,27.50
2018-05-27T10:31:07.797Z,27.50
2018-05-27T10:36:10.254Z,27.60
2018-05-27T10:41:12.917Z,27.60
2018-05-27T10:46:15.366Z,27.60
2018-05-27T10:51:18.593Z,27.40
2018-05-27T10:56:21.050Z,27.40
2018-05-27T11:01:23.495Z,27.30
2018-05-27T11:06:25.955Z,27.10
2018-05-27T11:11:28.422Z,27.00
2018-05-27T11:16:30.888Z,27.10
2018-05-27T11:21:33.334Z,27.10
2018-05-27T11:26:35.792Z,27.30
2018-05-27T11:31:39.026Z,27.60
2018-05-27T11:36:41.493Z,27.60
2018-05-27T11:41:43.939Z,27.70
2018-05-27T11:46:46.391Z,27.70
2018-05-27T11:51:48.849Z,27.80
2018-05-27T11:56:52.070Z,27.90
2018-05-27T12:01:54.537Z,27.80
2018-05-27T12:06:57.771Z,28.00
2018-05-27T12:12:00.221Z,28.00
2018-05-27T12:17:02.678Z,28.10
2018-05-27T12:22:05.137Z,28.00
2018-05-27T12:27:07.585Z,28.00
2018-05-27T12:32:10.045Z,28.10
2018-05-27T12:37:12.494Z,28.10
2018-05-27T12:42:14.937Z,28.10
2018-05-27T12:47:17.385Z,28.10
2018-05-27T12:52:19.845Z,28.30
2018-05-27T12:57:23.069Z,28.40
2018-05-27T13:02:25.518Z,28.30
2018-05-27T13:07:28.744Z,28.30
2018-05-27T13:12:31.969Z,28.40
2018-05-27T13:17:34.423Z,28.30
2018-05-27T13:22:36.874Z,28.50
2018-05-27T13:27:39.347Z,28.60
2018-05-27T13:32:41.809Z,28.60
2018-05-27T13:37:44.263Z,28.60
2018-05-27T13:42:46.722Z,28.60
2018-05-27T13:47:49.176Z,28.60
2018-05-27T13:52:51.638Z,28.60
2018-05-27T13:57:54.102Z,28.70
2018-05-27T14:02:56.560Z,28.80
2018-05-27T14:07:59.030Z,28.90
2018-05-27T14:13:01.506Z,29.00
2018-05-27T14:18:04.733Z,28.80
2018-05-27T14:23:07.189Z,28.80
2018-05-27T14:28:10.397Z,28.70
2018-05-27T14:33:13.665Z,28.60
2018-05-27T14:38:16.070Z,28.50
2018-05-27T14:43:18.532Z,28.50
2018-05-27T14:48:20.982Z,28.40
2018-05-27T14:53:23.441Z,28.30
2018-05-27T14:58:26.684Z,28.20
2018-05-27T15:03:29.153Z,28.10
2018-05-27T15:08:32.385Z,27.50
2018-05-27T15:13:34.845Z,27.40
2018-05-27T15:18:38.114Z,26.40
2018-05-27T15:23:40.555Z,26.30
2018-05-27T15:28:43.010Z,26.00
2018-05-27T15:33:45.477Z,25.60
2018-05-27T15:38:47.942Z,25.30
2018-05-27T15:43:50.398Z,25.00
2018-05-27T15:48:52.854Z,24.80
2018-05-27T15:53:55.310Z,24.60
2018-05-27T15:58:57.757Z,24.40
2018-05-27T16:04:00.209Z,24.20
2018-05-27T16:09:02.665Z,24.00
2018-05-27T16:14:05.126Z,23.80
2018-05-27T16:19:08.333Z,23.50
2018-05-27T16:24:10.780Z,23.50
2018-05-27T16:29:13.262Z,23.40
2018-05-27T16:34:15.730Z,23.10
2018-05-27T16:39:18.197Z,22.70
2018-05-27T16:44:20.650Z,22.50
2018-05-27T16:49:23.875Z,22.00
2018-05-27T16:54:26.337Z,22.00
2018-05-27T16:59:28.789Z,21.90
2018-05-27T17:04:31.254Z,21.70
2018-05-27T17:09:33.713Z,21.60
2018-05-27T17:14:36.939Z,21.50
2018-05-27T17:19:39.404Z,21.50
2018-05-27T17:24:42.634Z,21.60
2018-05-27T17:29:45.105Z,21.60
2018-05-27T17:34:47.577Z,21.70
2018-05-27T17:39:50.026Z,21.70
2018-05-27T17:44:52.488Z,21.80
2018-05-27T17:49:54.950Z,21.80
2018-05-27T17:54:57.417Z,21.70
2018-05-27T17:59:59.885Z,21.60
2018-05-27T18:05:02.372Z,21.50
2018-05-27T18:10:04.829Z,21.50
2018-05-27T18:15:07.394Z,21.50
2018-05-27T18:20:10.706Z,21.50
2018-05-27T18:25:13.240Z,21.40
2018-05-27T18:30:15.695Z,21.50
2018-05-27T18:35:18.166Z,21.50
2018-05-27T18:40:20.630Z,21.60
2018-05-27T18:45:23.074Z,21.60
2018-05-27T18:50:25.589Z,21.60
2018-05-27T18:55:28.035Z,21.60
2018-05-27T19:00:30.690Z,21.50
2018-05-27T19:05:33.166Z,21.50
2018-05-27T19:10:35.637Z,21.40
2018-05-27T19:15:38.089Z,21.40
2018-05-27T19:20:41.325Z,21.20
2018-05-27T19:25:43.799Z,21.20
2018-05-27T19:30:46.313Z,21.20
2018-05-27T19:35:48.762Z,21.20
2018-05-27T19:40:51.985Z,21.20
2018-05-27T19:45:54.471Z,21.20
2018-05-27T19:50:56.940Z,21.20
2018-05-27T19:56:00.177Z,21.10
2018-05-27T20:01:02.629Z,21.10
2018-05-27T20:06:05.850Z,21.10
2018-05-27T20:11:08.296Z,21.00
2018-05-27T20:16:10.755Z,21.10
2018-05-27T20:21:13.221Z,21.10
2018-05-27T20:26:15.685Z,21.10
2018-05-27T20:31:18.925Z,21.00
2018-05-27T20:36:21.397Z,21.00
2018-05-27T20:41:23.878Z,21.00
2018-05-27T20:46:27.094Z,20.80
2018-05-27T20:51:29.573Z,20.70
2018-05-27T20:56:32.882Z,20.70
2018-05-27T21:01:35.281Z,20.60
2018-05-27T21:06:37.726Z,20.60
2018-05-27T21:11:40.189Z,20.50
2018-05-27T21:16:42.661Z,20.60
2018-05-27T21:21:45.124Z,20.60
2018-05-27T21:26:47.586Z,20.60
2018-05-27T21:31:50.047Z,20.60
2018-05-27T21:36:52.501Z,20.50
2018-05-27T21:41:54.962Z,20.50
2018-05-27T21:46:58.192Z,20.50
2018-05-27T21:52:00.662Z,20.40
2018-05-27T21:57:03.125Z,20.50
2018-05-27T22:02:05.596Z,20.40
2018-05-27T22:07:08.041Z,20.40
2018-05-27T22:12:10.513Z,20.30
2018-05-27T22:17:13.754Z,20.30
2018-05-27T22:22:16.209Z,20.30
2018-05-27T22:27:19.446Z,20.30
2018-05-27T22:32:21.933Z,20.20
2018-05-27T22:37:24.389Z,20.30
2018-05-27T22:42:28.621Z,20.20
2018-05-27T22:47:31.967Z,20.10
2018-05-27T22:52:34.566Z,20.10
2018-05-27T22:57:37.030Z,20.00
2018-05-27T23:02:39.501Z,20.00
2018-05-27T23:07:41.956Z,19.90
2018-05-27T23:12:44.415Z,19.80
2018-05-27T23:17:46.861Z,19.80
2018-05-27T23:22:49.317Z,19.70
2018-05-27T23:27:51.778Z,19.60
2018-05-27T23:32:54.241Z,19.50
2018-05-27T23:37:56.705Z,19.50
2018-05-27T23:42:59.927Z,19.30
2018-05-27T23:48:02.385Z,19.20
2018-05-27T23:53:04.842Z,19.20
2018-05-27T23:58:07.401Z,19.10
